Thu, 01 Dec 2022 20:51:12 UTC | login

Information for RPM brotli-1.0.9-6.el9.x86_64.rpm

ID287579
Namebrotli
Version1.0.9
Release6.el9
Epoch
Archx86_64
SummaryLossless compression algorithm
DescriptionBrotli is a generic-purpose lossless compression algorithm that compresses data using a combination of a modern variant of the LZ77 algorithm, Huffman coding and 2nd order context modeling, with a compression ratio comparable to the best currently available general-purpose compression methods. It is similar in speed with deflate but offers more dense compression.
Build Time2021-08-09 19:37:33 GMT
Size312.38 KB
db412d16d457e0a400736442bb4373f5
LicenseMIT
Buildrootc9s-build-side-264-stack-gate-157133-24760
Provides
brotli = 1.0.9-6.el9
brotli(x86-64) = 1.0.9-6.el9
Obsoletes No Obsoletes
Conflicts No Conflicts
Requires
libbrotli(x86-64) = 1.0.9-6.el9
libc.so.6()(64bit)
libc.so.6(GLIBC_2.14)(64bit)
libc.so.6(GLIBC_2.2.5)(64bit)
libc.so.6(GLIBC_2.3.4)(64bit)
libc.so.6(GLIBC_2.33)(64bit)
libc.so.6(GLIBC_2.34)(64bit)
libc.so.6(GLIBC_2.4)(64bit)
libm.so.6()(64bit)
libm.so.6(GLIBC_2.29)(64bit)
rpmlib(CompressedFileNames) <= 3.0.4-1
rpmlib(FileDigests) <= 4.6.0-1
rpmlib(PayloadFilesHavePrefix) <= 4.0-1
rpmlib(PayloadIsZstd) <= 5.4.18-1
rtld(GNU_HASH)
Recommends No Recommends
Suggests No Suggests
Supplements No Supplements
Enhances No Enhances
Files
1 through 4 of 4
Name ascending sort Size
/usr/bin/brotli754.45 KB
/usr/lib/.build-id0.00 B
/usr/lib/.build-id/d30.00 B
/usr/lib/.build-id/d3/9e56d76acb2748e5fced2a00e9040541213b6326.00 B
Component of
Page:
1 through 50 of 2999 >>>
Buildroot descending sort Created State
c9s-build-301336-169876 2022-12-01 12:22:52 expired
c9s-build-301317-169706 2022-12-01 09:42:28 expired
c9s-build-301198-169066 2022-11-30 19:34:41 expired
c9s-build-301187-168977 2022-11-30 19:01:16 expired
c9s-build-301181-168977 2022-11-30 18:42:52 expired
c9s-build-301164-168883 2022-11-30 16:35:44 expired
c9s-build-301147-168883 2022-11-30 16:12:43 expired
c9s-build-301100-168883 2022-11-30 15:01:10 expired
c9s-build-301079-168883 2022-11-30 14:41:32 expired
c9s-build-301029-168703 2022-11-30 12:09:05 expired
c9s-build-300812-167320 2022-11-29 05:53:29 expired
c9s-build-300806-167320 2022-11-29 05:40:18 expired
c9s-build-300757-167239 2022-11-28 16:16:43 expired
c9s-build-300696-166904 2022-11-28 11:02:29 expired
c9s-build-300684-166904 2022-11-28 09:51:20 expired
c9s-build-300524-165897 2022-11-24 14:13:12 expired
c9s-build-300454-165405 2022-11-24 09:01:38 expired
c9s-build-300442-165405 2022-11-24 08:26:22 expired
c9s-build-300422-164993 2022-11-24 01:32:09 expired
c9s-build-300387-164915 2022-11-23 17:10:50 expired
c9s-build-300271-164253 2022-11-23 00:20:38 expired
c9s-build-300254-164253 2022-11-22 23:26:54 expired
c9s-build-300244-164253 2022-11-22 23:04:50 expired
c9s-build-300236-164253 2022-11-22 22:47:27 expired
c9s-build-300230-164172 2022-11-22 22:36:18 expired
c9s-pesign-build-300128-163525 2022-11-21 20:46:02 expired
c9s-build-299963-162857 2022-11-21 08:00:33 expired
c9s-build-299898-162423 2022-11-18 17:00:39 expired
c9s-build-299895-162423 2022-11-18 16:58:34 expired
c9s-build-299857-162342 2022-11-18 12:53:25 expired
c9s-build-299681-161011 2022-11-16 16:25:53 expired
c9s-pesign-build-299535-160288 2022-11-15 18:39:48 expired
c9s-build-299495-160125 2022-11-15 14:40:27 expired
c9s-build-299360-159948 2022-11-14 13:57:13 expired
c9s-build-299347-159948 2022-11-14 13:05:26 expired
c9s-build-299345-159948 2022-11-14 13:05:25 expired
c9s-build-299310-159705 2022-11-14 07:23:04 expired
c9s-build-299242-159128 2022-11-11 12:53:04 expired
c9s-build-299238-159049 2022-11-11 11:13:50 expired
c9s-build-299230-159049 2022-11-11 09:50:24 expired
c9s-build-side-1348-stack-gate-299171-158809 2022-11-10 17:32:07 expired
c9s-build-side-1348-stack-gate-299150-158730 2022-11-10 16:58:44 expired
c9s-build-299003-157954 2022-11-09 15:32:34 expired
c9s-build-298921-157723 2022-11-09 00:26:57 expired
c9s-build-298847-157433 2022-11-08 14:11:15 expired
c9s-build-298800-157125 2022-11-08 04:21:20 expired
c9s-build-298676-156274 2022-11-07 11:16:46 expired
c9s-build-298662-156122 2022-11-07 09:31:54 expired
c9s-build-298659-156122 2022-11-07 09:09:45 expired
c9s-build-298650-156122 2022-11-07 08:06:32 expired